sensor_id;sensor_type;location;lat;lon;timestamp;pressure;altitude;pressure_sealevel;temperature;humidity
33422;BME280;19763;55.798;37.782;2022-09-09T00:04:27;100333.53;;;8.27;76.78
33422;BME280;19763;55.798;37.782;2022-09-09T00:09:19;100338.69;;;8.37;76.44
33422;BME280;19763;55.798;37.782;2022-09-09T00:11:48;100342.97;;;8.36;76.19
33422;BME280;19763;55.798;37.782;2022-09-09T00:16:58;100339.53;;;8.37;76.76
33422;BME280;19763;55.798;37.782;2022-09-09T00:19:33;100350.72;;;8.42;76.60
33422;BME280;19763;55.798;37.782;2022-09-09T00:22:22;100336.09;;;8.44;76.20
33422;BME280;19763;55.798;37.782;2022-09-09T00:24:54;100351.59;;;8.48;75.15
33422;BME280;19763;55.798;37.782;2022-09-09T00:27:29;100340.41;;;8.41;76.54
33422;BME280;19763;55.798;37.782;2022-09-09T00:29:58;100345.53;;;8.39;77.04
33422;BME280;19763;55.798;37.782;2022-09-09T00:32:27;100348.16;;;8.41;76.77
33422;BME280;19763;55.798;37.782;2022-09-09T00:34:54;100348.13;;;8.39;77.02
33422;BME280;19763;55.798;37.782;2022-09-09T00:37:22;100345.56;;;8.42;76.40
33422;BME280;19763;55.798;37.782;2022-09-09T00:39:50;100350.72;;;8.50;76.58
33422;BME280;19763;55.798;37.782;2022-09-09T00:52:52;100362.75;;;8.36;77.47
33422;BME280;19763;55.798;37.782;2022-09-09T00:55:25;100359.31;;;8.32;76.70
33422;BME280;19763;55.798;37.782;2022-09-09T00:57:53;100361.91;;;8.35;76.84
33422;BME280;19763;55.798;37.782;2022-09-09T01:00:21;100356.75;;;8.35;77.16
33422;BME280;19763;55.798;37.782;2022-09-09T01:05:26;100357.59;;;8.39;77.03
33422;BME280;19763;55.798;37.782;2022-09-09T01:07:52;100367.06;;;8.35;76.44
33422;BME280;19763;55.798;37.782;2022-09-09T01:13:04;100368.75;;;8.39;75.88
33422;BME280;19763;55.798;37.782;2022-09-09T01:15:33;100373.06;;;8.39;77.19
33422;BME280;19763;55.798;37.782;2022-09-09T01:18:01;100375.66;;;8.39;76.67
33422;BME280;19763;55.798;37.782;2022-09-09T01:20:31;100377.38;;;8.41;76.74
33422;BME280;19763;55.798;37.782;2022-09-09T01:28:22;100380.84;;;8.53;76.53
33422;BME280;19763;55.798;37.782;2022-09-09T01:30:50;100382.56;;;8.49;76.02
33422;BME280;19763;55.798;37.782;2022-09-09T01:33:16;100389.44;;;8.52;76.04
33422;BME280;19763;55.798;37.782;2022-09-09T01:35:59;100386.88;;;8.49;76.26
33422;BME280;19763;55.798;37.782;2022-09-09T01:38:26;100385.13;;;8.49;75.36
33422;BME280;19763;55.798;37.782;2022-09-09T01:40:52;100393.75;;;8.45;75.57
33422;BME280;19763;55.798;37.782;2022-09-09T01:43:21;100392.03;;;8.52;75.96
33422;BME280;19763;55.798;37.782;2022-09-09T01:45:48;100391.16;;;8.51;74.85
33422;BME280;19763;55.798;37.782;2022-09-09T01:48:14;100396.34;;;8.51;75.45
33422;BME280;19763;55.798;37.782;2022-09-09T01:50:40;100395.44;;;8.52;75.93
33422;BME280;19763;55.798;37.782;2022-09-09T01:53:05;100393.75;;;8.56;74.78
33422;BME280;19763;55.798;37.782;2022-09-09T01:55:32;100391.16;;;8.56;75.50
33422;BME280;19763;55.798;37.782;2022-09-09T02:00:25;100402.34;;;8.47;75.84
33422;BME280;19763;55.798;37.782;2022-09-09T02:07:51;100410.09;;;8.49;76.05
33422;BME280;19763;55.798;37.782;2022-09-09T02:10:21;100410.09;;;8.52;74.42
33422;BME280;19763;55.798;37.782;2022-09-09T02:12:48;100412.69;;;8.50;75.10
33422;BME280;19763;55.798;37.782;2022-09-09T02:18:27;100417.00;;;8.50;75.18
33422;BME280;19763;55.798;37.782;2022-09-09T02:20:56;100415.28;;;8.47;76.59
33422;BME280;19763;55.798;37.782;2022-09-09T02:23:22;100413.53;;;8.40;75.68
33422;BME280;19763;55.798;37.782;2022-09-09T02:25:49;100412.66;;;8.38;75.63
33422;BME280;19763;55.798;37.782;2022-09-09T02:28:16;100420.38;;;8.38;76.13
33422;BME280;19763;55.798;37.782;2022-09-09T02:30:45;100418.69;;;8.38;76.30
33422;BME280;19763;55.798;37.782;2022-09-09T02:33:12;100425.56;;;8.36;76.50
33422;BME280;19763;55.798;37.782;2022-09-09T02:35:39;100421.28;;;8.35;76.33
33422;BME280;19763;55.798;37.782;2022-09-09T02:38:07;100429.88;;;8.34;76.09
33422;BME280;19763;55.798;37.782;2022-09-09T02:40:33;100435.03;;;8.33;76.22
33422;BME280;19763;55.798;37.782;2022-09-09T02:42:58;100442.78;;;8.28;76.90
33422;BME280;19763;55.798;37.782;2022-09-09T02:45:27;100444.47;;;8.29;76.03
33422;BME280;19763;55.798;37.782;2022-09-09T02:48:11;100448.78;;;8.16;76.16
33422;BME280;19763;55.798;37.782;2022-09-09T02:53:18;100453.94;;;8.04;77.52
33422;BME280;19763;55.798;37.782;2022-09-09T02:58:12;100459.91;;;7.97;76.98
33422;BME280;19763;55.798;37.782;2022-09-09T03:00:42;100461.66;;;7.90;77.57
33422;BME280;19763;55.798;37.782;2022-09-09T03:03:08;100464.19;;;7.84;77.37
33422;BME280;19763;55.798;37.782;2022-09-09T03:05:34;100463.34;;;7.82;78.53
33422;BME280;19763;55.798;37.782;2022-09-09T03:08:00;100474.50;;;7.82;78.11
33422;BME280;19763;55.798;37.782;2022-09-09T03:10:26;100465.88;;;7.71;78.97
33422;BME280;19763;55.798;37.782;2022-09-09T03:12:51;100468.44;;;7.68;78.45
33422;BME280;19763;55.798;37.782;2022-09-09T03:15:17;100465.88;;;7.66;78.11
33422;BME280;19763;55.798;37.782;2022-09-09T03:17:42;100466.72;;;7.64;79.11
33422;BME280;19763;55.798;37.782;2022-09-09T03:20:08;100472.75;;;7.64;78.16
33422;BME280;19763;55.798;37.782;2022-09-09T03:22:33;100476.16;;;7.60;78.53
33422;BME280;19763;55.798;37.782;2022-09-09T03:24:59;100473.53;;;7.52;79.02
33422;BME280;19763;55.798;37.782;2022-09-09T03:27:24;100468.38;;;7.45;79.52
33422;BME280;19763;55.798;37.782;2022-09-09T03:29:50;100470.91;;;7.35;79.51
33422;BME280;19763;55.798;37.782;2022-09-09T03:32:17;100470.91;;;7.35;80.12
33422;BME280;19763;55.798;37.782;2022-09-09T03:34:42;100471.78;;;7.36;78.93
33422;BME280;19763;55.798;37.782;2022-09-09T03:37:08;100473.47;;;7.29;79.33
33422;BME280;19763;55.798;37.782;2022-09-09T03:39:33;100477.78;;;7.35;79.03
33422;BME280;19763;55.798;37.782;2022-09-09T03:41:59;100482.06;;;7.31;80.38
33422;BME280;19763;55.798;37.782;2022-09-09T03:44:24;100482.94;;;7.36;79.94
33422;BME280;19763;55.798;37.782;2022-09-09T03:46:49;100503.56;;;7.36;79.96
33422;BME280;19763;55.798;37.782;2022-09-09T03:49:15;100492.41;;;7.43;80.19
33422;BME280;19763;55.798;37.782;2022-09-09T03:51:41;100498.41;;;7.41;80.48
33422;BME280;19763;55.798;37.782;2022-09-09T03:54:07;100495.03;;;7.50;79.48
33422;BME280;19763;55.798;37.782;2022-09-09T03:56:35;100500.22;;;7.54;80.00
33422;BME280;19763;55.798;37.782;2022-09-09T03:59:01;100498.47;;;7.50;79.97
33422;BME280;19763;55.798;37.782;2022-09-09T04:01:26;100503.63;;;7.58;79.20
33422;BME280;19763;55.798;37.782;2022-09-09T04:03:52;100503.69;;;7.64;79.80
33422;BME280;19763;55.798;37.782;2022-09-09T04:06:18;100500.28;;;7.68;79.46
33422;BME280;19763;55.798;37.782;2022-09-09T04:08:45;100496.84;;;7.75;79.26
33422;BME280;19763;55.798;37.782;2022-09-09T04:11:10;100497.72;;;7.77;79.18
33422;BME280;19763;55.798;37.782;2022-09-09T04:13:37;100499.44;;;7.82;78.45
33422;BME280;19763;55.798;37.782;2022-09-09T04:16:04;100503.75;;;7.83;78.61
33422;BME280;19763;55.798;37.782;2022-09-09T04:18:29;100505.44;;;7.84;79.03
33422;BME280;19763;55.798;37.782;2022-09-09T04:20:55;100500.34;;;7.91;77.80
33422;BME280;19763;55.798;37.782;2022-09-09T04:23:24;100508.91;;;7.95;78.10
33422;BME280;19763;55.798;37.782;2022-09-09T04:25:51;100502.06;;;7.94;78.24
33422;BME280;19763;55.798;37.782;2022-09-09T04:28:17;100512.38;;;7.97;78.00
33422;BME280;19763;55.798;37.782;2022-09-09T04:30:43;100508.91;;;7.93;79.00
33422;BME280;19763;55.798;37.782;2022-09-09T04:33:09;100514.97;;;7.94;78.77
33422;BME280;19763;55.798;37.782;2022-09-09T04:35:35;100467.59;;;7.69;78.48
33422;BME280;19763;55.798;37.782;2022-09-09T04:38:01;100513.28;;;8.04;77.80
33422;BME280;19763;55.798;37.782;2022-09-09T04:40:28;100516.69;;;8.06;78.58
33422;BME280;19763;55.798;37.782;2022-09-09T04:42:54;100519.28;;;8.03;78.42
33422;BME280;19763;55.798;37.782;2022-09-09T04:45:20;100511.53;;;8.00;78.23
33422;BME280;19763;55.798;37.782;2022-09-09T04:47:45;100514.13;;;8.03;78.68
33422;BME280;19763;55.798;37.782;2022-09-09T04:50:11;100508.97;;;8.04;79.55
33422;BME280;19763;55.798;37.782;2022-09-09T04:52:37;100511.53;;;8.13;78.26
33422;BME280;19763;55.798;37.782;2022-09-09T04:55:03;100516.75;;;8.17;78.44
33422;BME280;19763;55.798;37.782;2022-09-09T04:57:29;100515.88;;;8.22;78.09
33422;BME280;19763;55.798;37.782;2022-09-09T04:59:57;100516.75;;;8.27;76.11
33422;BME280;19763;55.798;37.782;2022-09-09T05:02:23;100521.03;;;8.36;76.35
33422;BME280;19763;55.798;37.782;2022-09-09T05:04:48;100518.47;;;8.38;75.09
33422;BME280;19763;55.798;37.782;2022-09-09T05:07:15;100522.84;;;8.48;75.17
33422;BME280;19763;55.798;37.782;2022-09-09T05:09:40;100524.56;;;8.58;74.99
33422;BME280;19763;55.798;37.782;2022-09-09T05:12:05;100526.28;;;8.69;74.40
33422;BME280;19763;55.798;37.782;2022-09-09T05:14:31;100525.41;;;8.73;73.91
33422;BME280;19763;55.798;37.782;2022-09-09T05:16:56;100529.72;;;8.78;73.80
33422;BME280;19763;55.798;37.782;2022-09-09T05:19:23;100541.75;;;8.86;73.00
33422;BME280;19763;55.798;37.782;2022-09-09T05:21:48;100538.31;;;8.91;72.31
33422;BME280;19763;55.798;37.782;2022-09-09T05:24:15;100540.03;;;8.95;72.47
33422;BME280;19763;55.798;37.782;2022-09-09T05:26:40;100546.91;;;9.03;71.97
33422;BME280;19763;55.798;37.782;2022-09-09T05:29:06;100544.31;;;9.06;71.21
33422;BME280;19763;55.798;37.782;2022-09-09T05:31:33;100540.00;;;9.17;70.75
33422;BME280;19763;55.798;37.782;2022-09-09T05:33:58;100544.28;;;9.26;71.64
33422;BME280;19763;55.798;37.782;2022-09-09T05:36:24;100545.13;;;9.25;70.34
33422;BME280;19763;55.798;37.782;2022-09-09T05:38:50;100546.03;;;9.27;70.16
33422;BME280;19763;55.798;37.782;2022-09-09T05:41:15;100552.88;;;9.37;69.37
33422;BME280;19763;55.798;37.782;2022-09-09T05:43:42;100546.81;;;9.46;69.21
33422;BME280;19763;55.798;37.782;2022-09-09T05:46:16;100552.00;;;9.54;68.70
33422;BME280;19763;55.798;37.782;2022-09-09T05:48:43;100550.22;;;9.62;68.78
33422;BME280;19763;55.798;37.782;2022-09-09T05:51:10;100547.63;;;9.68;68.03
33422;BME280;19763;55.798;37.782;2022-09-09T05:53:40;100544.16;;;9.75;68.26
33422;BME280;19763;55.798;37.782;2022-09-09T05:56:07;100551.03;;;9.79;68.23
33422;BME280;19763;55.798;37.782;2022-09-09T05:58:35;100551.88;;;9.88;68.31
33422;BME280;19763;55.798;37.782;2022-09-09T06:01:10;100550.97;;;9.95;67.57
33422;BME280;19763;55.798;37.782;2022-09-09T06:03:37;100541.44;;;9.98;67.68
33422;BME280;19763;55.798;37.782;2022-09-09T06:06:04;100545.75;;;10.01;67.74
33422;BME280;19763;55.798;37.782;2022-09-09T06:08:33;100552.66;;;9.99;65.11
33422;BME280;19763;55.798;37.782;2022-09-09T06:11:05;100553.47;;;10.12;66.68
33422;BME280;19763;55.798;37.782;2022-09-09T06:13:31;100553.44;;;10.18;64.00
33422;BME280;19763;55.798;37.782;2022-09-09T06:15:56;100558.53;;;10.26;63.23
33422;BME280;19763;55.798;37.782;2022-09-09T06:18:23;100561.09;;;10.33;63.32
33422;BME280;19763;55.798;37.782;2022-09-09T06:20:55;100564.56;;;10.31;62.27
33422;BME280;19763;55.798;37.782;2022-09-09T06:23:21;100567.97;;;10.42;63.38
33422;BME280;19763;55.798;37.782;2022-09-09T06:25:47;100573.13;;;10.45;61.30
33422;BME280;19763;55.798;37.782;2022-09-09T06:28:14;100580.00;;;10.52;62.03
33422;BME280;19763;55.798;37.782;2022-09-09T06:30:40;100573.88;;;10.63;60.81
33422;BME280;19763;55.798;37.782;2022-09-09T06:33:06;100578.13;;;10.71;60.18
33422;BME280;19763;55.798;37.782;2022-09-09T06:35:31;100579.03;;;10.64;61.02
33422;BME280;19763;55.798;37.782;2022-09-09T06:37:57;100582.44;;;10.71;59.87
33422;BME280;19763;55.798;37.782;2022-09-09T06:40:24;100581.47;;;10.84;60.26
33422;BME280;19763;55.798;37.782;2022-09-09T06:42:49;100591.81;;;10.91;60.56
33422;BME280;19763;55.798;37.782;2022-09-09T06:45:15;100587.41;;;10.97;59.28
33422;BME280;19763;55.798;37.782;2022-09-09T06:47:40;100585.59;;;11.07;58.61
33422;BME280;19763;55.798;37.782;2022-09-09T06:50:06;100591.63;;;11.11;58.51
33422;BME280;19763;55.798;37.782;2022-09-09T06:52:32;100590.69;;;11.19;59.08
33422;BME280;19763;55.798;37.782;2022-09-09T06:54:58;100591.47;;;11.28;59.56
33422;BME280;19763;55.798;37.782;2022-09-09T06:57:24;100598.25;;;11.41;58.49
33422;BME280;19763;55.798;37.782;2022-09-09T06:59:49;100600.78;;;11.49;57.08
33422;BME280;19763;55.798;37.782;2022-09-09T07:02:15;100603.31;;;11.55;57.07
33422;BME280;19763;55.798;37.782;2022-09-09T07:04:41;100604.16;;;11.55;57.70
33422;BME280;19763;55.798;37.782;2022-09-09T07:07:06;100601.44;;;11.68;56.84
33422;BME280;19763;55.798;37.782;2022-09-09T07:09:33;100598.94;;;11.58;55.95
33422;BME280;19763;55.798;37.782;2022-09-09T07:11:58;100599.53;;;11.82;56.53
33422;BME280;19763;55.798;37.782;2022-09-09T07:14:24;100603.00;;;11.81;53.68
33422;BME280;19763;55.798;37.782;2022-09-09T07:16:50;100605.47;;;11.97;53.96
33422;BME280;19763;55.798;37.782;2022-09-09T07:19:15;100608.84;;;12.03;54.74
33422;BME280;19763;55.798;37.782;2022-09-09T07:21:41;100610.47;;;12.12;53.88
33422;BME280;19763;55.798;37.782;2022-09-09T07:24:07;100613.72;;;12.26;53.56
33422;BME280;19763;55.798;37.782;2022-09-09T07:26:35;100613.09;;;12.09;53.34
33422;BME280;19763;55.798;37.782;2022-09-09T07:29:01;100614.09;;;12.00;54.85
33422;BME280;19763;55.798;37.782;2022-09-09T07:31:30;100610.72;;;11.89;54.81
33422;BME280;19763;55.798;37.782;2022-09-09T07:33:56;100614.16;;;11.91;55.62
33422;BME280;19763;55.798;37.782;2022-09-09T07:36:26;100618.41;;;12.00;56.64
33422;BME280;19763;55.798;37.782;2022-09-09T07:38:56;100622.75;;;11.98;54.27
33422;BME280;19763;55.798;37.782;2022-09-09T07:41:23;100624.41;;;12.05;52.52
33422;BME280;19763;55.798;37.782;2022-09-09T07:43:50;100620.94;;;12.06;53.52
33422;BME280;19763;55.798;37.782;2022-09-09T07:46:16;100634.97;;;11.86;53.48
33422;BME280;19763;55.798;37.782;2022-09-09T07:48:45;100635.91;;;11.79;53.28
33422;BME280;19763;55.798;37.782;2022-09-09T07:51:13;100639.50;;;11.69;52.64
33422;BME280;19763;55.798;37.782;2022-09-09T07:53:42;100642.84;;;11.80;53.67
33422;BME280;19763;55.798;37.782;2022-09-09T07:56:08;100637.50;;;11.96;55.11
33422;BME280;19763;55.798;37.782;2022-09-09T08:00:22;100634.66;;;12.16;52.21
33422;BME280;19763;55.798;37.782;2022-09-09T08:02:49;100640.09;;;11.97;51.92
33422;BME280;19763;55.798;37.782;2022-09-09T08:05:14;100642.50;;;12.09;52.43
33422;BME280;19763;55.798;37.782;2022-09-09T08:07:41;100645.00;;;12.19;52.77
33422;BME280;19763;55.798;37.782;2022-09-09T08:10:07;100640.97;;;11.91;51.50
33422;BME280;19763;55.798;37.782;2022-09-09T08:12:32;100640.88;;;12.02;51.88
33422;BME280;19763;55.798;37.782;2022-09-09T08:14:58;100638.28;;;12.01;53.13
33422;BME280;19763;55.798;37.782;2022-09-09T08:17:24;100646.00;;;12.07;53.95
33422;BME280;19763;55.798;37.782;2022-09-09T08:19:49;100639.06;;;12.09;54.22
33422;BME280;19763;55.798;37.782;2022-09-09T08:22:15;100641.19;;;11.73;52.30
33422;BME280;19763;55.798;37.782;2022-09-09T08:24:41;100652.22;;;11.94;54.38
33422;BME280;19763;55.798;37.782;2022-09-09T08:27:06;100653.94;;;11.96;54.97
33422;BME280;19763;55.798;37.782;2022-09-09T08:29:32;100640.03;;;12.02;54.60
33422;BME280;19763;55.798;37.782;2022-09-09T08:31:58;100648.53;;;12.13;54.99
33422;BME280;19763;55.798;37.782;2022-09-09T08:34:25;100647.91;;;11.96;53.38
33422;BME280;19763;55.798;37.782;2022-09-09T08:36:53;100640.72;;;12.16;52.70
33422;BME280;19763;55.798;37.782;2022-09-09T08:39:20;100641.41;;;12.29;53.35
33422;BME280;19763;55.798;37.782;2022-09-09T08:52:53;100652.91;;;12.08;54.16
33422;BME280;19763;55.798;37.782;2022-09-09T08:58:20;100662.34;;;12.17;55.20
33422;BME280;19763;55.798;37.782;2022-09-09T09:09:38;100655.28;;;13.45;49.00
33422;BME280;19763;55.798;37.782;2022-09-09T09:12:16;100664.41;;;13.16;50.08
33422;BME280;19763;55.798;37.782;2022-09-09T09:14:43;100654.41;;;12.91;50.48
33422;BME280;19763;55.798;37.782;2022-09-09T09:17:16;100671.72;;;12.91;49.17
33422;BME280;19763;55.798;37.782;2022-09-09T09:19:45;100666.69;;;13.38;49.38
33422;BME280;19763;55.798;37.782;2022-09-09T09:22:18;100654.00;;;13.68;48.90
33422;BME280;19763;55.798;37.782;2022-09-09T09:27:34;100616.03;;;13.06;49.20
33422;BME280;19763;55.798;37.782;2022-09-09T09:30:10;100618.09;;;12.84;51.05
33422;BME280;19763;55.798;37.782;2022-09-09T09:32:39;100666.47;;;12.95;52.36
33422;BME280;19763;55.798;37.782;2022-09-09T09:35:13;100664.88;;;12.85;52.94
33422;BME280;19763;55.798;37.782;2022-09-09T09:37:40;100616.00;;;12.53;52.56
33422;BME280;19763;55.798;37.782;2022-09-09T09:40:11;100675.38;;;12.79;53.11
33422;BME280;19763;55.798;37.782;2022-09-09T09:42:38;100657.09;;;12.84;53.44
33422;BME280;19763;55.798;37.782;2022-09-09T09:45:41;100648.63;;;12.71;50.35
33422;BME280;19763;55.798;37.782;2022-09-09T09:48:13;100650.25;;;12.78;49.80
33422;BME280;19763;55.798;37.782;2022-09-09T09:50:55;100652.06;;;12.74;51.14
33422;BME280;19763;55.798;37.782;2022-09-09T09:53:26;100604.84;;;12.45;51.35
33422;BME280;19763;55.798;37.782;2022-09-09T09:56:11;100604.00;;;12.41;50.99
33422;BME280;19763;55.798;37.782;2022-09-09T10:01:26;100647.09;;;12.57;50.36
33422;BME280;19763;55.798;37.782;2022-09-09T10:06:38;100650.44;;;12.66;51.75
33422;BME280;19763;55.798;37.782;2022-09-09T10:09:43;100649.31;;;12.84;51.06
33422;BME280;19763;55.798;37.782;2022-09-09T10:13:04;100657.13;;;12.82;53.07
33422;BME280;19763;55.798;37.782;2022-09-09T10:20:46;100662.72;;;13.12;50.31
33422;BME280;19763;55.798;37.782;2022-09-09T10:32:41;100664.41;;;13.16;49.18
33422;BME280;19763;55.798;37.782;2022-09-09T10:35:36;100662.94;;;12.98;50.46
33422;BME280;19763;55.798;37.782;2022-09-09T10:38:17;100664.66;;;13.01;51.75
33422;BME280;19763;55.798;37.782;2022-09-09T10:54:47;100662.06;;;12.99;48.68
33422;BME280;19763;55.798;37.782;2022-09-09T10:57:51;100620.59;;;12.91;48.21
33422;BME280;19763;55.798;37.782;2022-09-09T11:03:03;100665.69;;;13.45;49.28
33422;BME280;19763;55.798;37.782;2022-09-09T11:05:41;100611.44;;;13.20;50.42
33422;BME280;19763;55.798;37.782;2022-09-09T11:08:20;100663.91;;;13.49;49.33
33422;BME280;19763;55.798;37.782;2022-09-09T11:16:29;100621.91;;;12.61;49.26
33422;BME280;19763;55.798;37.782;2022-09-09T11:19:03;100666.47;;;12.95;51.00
33422;BME280;19763;55.798;37.782;2022-09-09T11:21:48;100662.38;;;12.79;50.19
33422;BME280;19763;55.798;37.782;2022-09-09T11:24:39;100628.81;;;12.64;50.90
33422;BME280;19763;55.798;37.782;2022-09-09T11:27:29;100625.31;;;12.66;50.09
33422;BME280;19763;55.798;37.782;2022-09-09T11:30:19;100673.25;;;13.06;50.41
33422;BME280;19763;55.798;37.782;2022-09-09T11:41:01;100665.91;;;12.75;47.45
33422;BME280;19763;55.798;37.782;2022-09-09T11:43:31;100631.59;;;12.51;47.24
33422;BME280;19763;55.798;37.782;2022-09-09T11:46:00;100682.19;;;12.86;49.85
33422;BME280;19763;55.798;37.782;2022-09-09T11:48:36;100632.16;;;12.72;49.75
33422;BME280;19763;55.798;37.782;2022-09-09T11:51:11;100672.56;;;12.94;49.69
33422;BME280;19763;55.798;37.782;2022-09-09T11:56:54;100669.19;;;12.88;48.35
33422;BME280;19763;55.798;37.782;2022-09-09T11:59:31;100666.44;;;12.99;47.98
33422;BME280;19763;55.798;37.782;2022-09-09T12:01:58;100672.38;;;13.05;48.69
33422;BME280;19763;55.798;37.782;2022-09-09T12:06:57;100677.69;;;12.98;47.15
33422;BME280;19763;55.798;37.782;2022-09-09T12:19:42;100651.63;;;13.01;46.21
33422;BME280;19763;55.798;37.782;2022-09-09T12:27:43;100669.75;;;13.05;45.97
33422;BME280;19763;55.798;37.782;2022-09-09T12:30:14;100650.47;;;13.20;45.54
33422;BME280;19763;55.798;37.782;2022-09-09T12:32:41;100663.59;;;13.11;45.49
33422;BME280;19763;55.798;37.782;2022-09-09T12:35:27;100606.00;;;12.83;45.69
33422;BME280;19763;55.798;37.782;2022-09-09T12:37:58;100657.53;;;13.12;47.49
33422;BME280;19763;55.798;37.782;2022-09-09T12:40:31;100619.72;;;12.91;48.00
33422;BME280;19763;55.798;37.782;2022-09-09T12:43:01;100661.00;;;13.12;47.84
33422;BME280;19763;55.798;37.782;2022-09-09T12:45:29;100614.75;;;12.77;46.52
33422;BME280;19763;55.798;37.782;2022-09-09T12:48:04;100663.66;;;13.08;45.34
33422;BME280;19763;55.798;37.782;2022-09-09T12:50:37;100609.44;;;12.85;46.90
33422;BME280;19763;55.798;37.782;2022-09-09T12:53:10;100604.41;;;12.75;47.27
33422;BME280;19763;55.798;37.782;2022-09-09T12:55:55;100647.16;;;13.10;46.63
33422;BME280;19763;55.798;37.782;2022-09-09T12:58:21;100642.91;;;13.05;45.87
33422;BME280;19763;55.798;37.782;2022-09-09T13:00:54;100648.78;;;13.18;45.52
33422;BME280;19763;55.798;37.782;2022-09-09T13:03:24;100642.72;;;13.17;45.90
33422;BME280;19763;55.798;37.782;2022-09-09T13:05:50;100653.84;;;13.24;46.60
33422;BME280;19763;55.798;37.782;2022-09-09T13:08:17;100657.41;;;13.21;45.57
33422;BME280;19763;55.798;37.782;2022-09-09T13:10:59;100609.22;;;12.99;46.68
33422;BME280;19763;55.798;37.782;2022-09-09T13:13:28;100655.53;;;13.28;46.81
33422;BME280;19763;55.798;37.782;2022-09-09T13:15:57;100658.25;;;13.22;47.17
33422;BME280;19763;55.798;37.782;2022-09-09T13:18:31;100603.47;;;12.78;46.77
33422;BME280;19763;55.798;37.782;2022-09-09T13:20:59;100649.91;;;13.03;47.33
33422;BME280;19763;55.798;37.782;2022-09-09T13:23:28;100599.81;;;12.90;47.59
33422;BME280;19763;55.798;37.782;2022-09-09T13:26:23;100568.78;;;12.79;48.68
33422;BME280;19763;55.798;37.782;2022-09-09T13:28:48;100638.25;;;13.24;46.59
33422;BME280;19763;55.798;37.782;2022-09-09T13:31:28;100661.53;;;13.35;46.61
33422;BME280;19763;55.798;37.782;2022-09-09T13:33:54;100647.66;;;13.34;46.07
33422;BME280;19763;55.798;37.782;2022-09-09T13:36:31;100659.59;;;13.46;47.14
33422;BME280;19763;55.798;37.782;2022-09-09T13:38:59;100635.38;;;13.41;48.36
33422;BME280;19763;55.798;37.782;2022-09-09T13:41:30;100653.50;;;13.49;45.67
33422;BME280;19763;55.798;37.782;2022-09-09T13:43:56;100659.00;;;13.28;46.06
33422;BME280;19763;55.798;37.782;2022-09-09T13:49:23;100656.34;;;13.32;46.89
33422;BME280;19763;55.798;37.782;2022-09-09T13:51:50;100649.69;;;13.15;46.27
33422;BME280;19763;55.798;37.782;2022-09-09T13:54:20;100659.88;;;13.27;46.31
33422;BME280;19763;55.798;37.782;2022-09-09T13:56:46;100656.50;;;13.22;48.77
33422;BME280;19763;55.798;37.782;2022-09-09T13:59:14;100635.06;;;13.08;49.08
33422;BME280;19763;55.798;37.782;2022-09-09T14:01:40;100661.75;;;13.19;48.55
33422;BME280;19763;55.798;37.782;2022-09-09T14:04:07;100654.06;;;13.13;47.76
33422;BME280;19763;55.798;37.782;2022-09-09T14:06:38;100658.31;;;13.19;48.51
33422;BME280;19763;55.798;37.782;2022-09-09T14:09:06;100656.75;;;13.07;49.11
33422;BME280;19763;55.798;37.782;2022-09-09T14:11:31;100656.06;;;12.95;48.89
33422;BME280;19763;55.798;37.782;2022-09-09T14:13:57;100656.09;;;12.94;48.23
33422;BME280;19763;55.798;37.782;2022-09-09T14:16:23;100654.44;;;12.90;47.70
33422;BME280;19763;55.798;37.782;2022-09-09T14:18:48;100656.91;;;12.96;48.19
33422;BME280;19763;55.798;37.782;2022-09-09T14:21:14;100662.19;;;12.91;49.45
33422;BME280;19763;55.798;37.782;2022-09-09T14:23:41;100652.69;;;12.89;49.65
33422;BME280;19763;55.798;37.782;2022-09-09T14:26:07;100657.06;;;12.85;49.29
33422;BME280;19763;55.798;37.782;2022-09-09T14:28:34;100634.88;;;12.64;50.04
33422;BME280;19763;55.798;37.782;2022-09-09T14:31:01;100640.00;;;12.69;49.99
33422;BME280;19763;55.798;37.782;2022-09-09T14:33:27;100646.03;;;12.71;50.16
33422;BME280;19763;55.798;37.782;2022-09-09T14:35:57;100659.97;;;12.65;49.86
33422;BME280;19763;55.798;37.782;2022-09-09T14:38:23;100653.88;;;12.68;50.67
33422;BME280;19763;55.798;37.782;2022-09-09T14:40:48;100651.31;;;12.65;50.09
33422;BME280;19763;55.798;37.782;2022-09-09T14:43:14;100641.03;;;12.58;49.78
33422;BME280;19763;55.798;37.782;2022-09-09T14:45:40;100651.31;;;12.65;49.00
33422;BME280;19763;55.798;37.782;2022-09-09T14:48:05;100650.44;;;12.67;50.29
33422;BME280;19763;55.798;37.782;2022-09-09T14:50:31;100654.78;;;12.64;50.39
33422;BME280;19763;55.798;37.782;2022-09-09T14:52:57;100650.66;;;12.50;50.42
33422;BME280;19763;55.798;37.782;2022-09-09T14:55:22;100657.56;;;12.50;51.02
33422;BME280;19763;55.798;37.782;2022-09-09T14:57:48;100649.09;;;12.37;51.73
33422;BME280;19763;55.798;37.782;2022-09-09T15:00:14;100649.84;;;12.45;50.82
33422;BME280;19763;55.798;37.782;2022-09-09T15:02:41;100649.06;;;12.40;51.26
33422;BME280;19763;55.798;37.782;2022-09-09T15:05:06;100643.88;;;12.40;52.00
33422;BME280;19763;55.798;37.782;2022-09-09T15:07:32;100643.88;;;12.40;51.33
33422;BME280;19763;55.798;37.782;2022-09-09T15:09:59;100649.09;;;12.37;51.50
33422;BME280;19763;55.798;37.782;2022-09-09T15:12:24;100652.56;;;12.37;52.02
33422;BME280;19763;55.798;37.782;2022-09-09T15:14:50;100655.22;;;12.34;51.86
33422;BME280;19763;55.798;37.782;2022-09-09T15:17:16;100656.09;;;12.32;52.07
33422;BME280;19763;55.798;37.782;2022-09-09T15:19:41;100652.63;;;12.33;52.05
33422;BME280;19763;55.798;37.782;2022-09-09T15:22:08;100656.97;;;12.31;52.17